Terminal Aerodrome Forecast
Issued by NWS

Home | Current Version | Previous Version | Text Only | Print | Product List | Glossary On
Versions: 1 2 3 4 5 6 7 8 9 10 11 12
888
FTUS42 TJSJ 211746
TAFJMZ
TAF
TJMZ 211746Z 2118/2218 VRB15KT P6SM -SHRA SCT025 BKN040
      TEMPO 2118/2120 09015G25KT 5SM +SHRA BKN020 BKN035
     FM212200 07007KT P6SM FEW040 FEW060
     FM221700 29013KT P6SM SCT030 BKN040
      AMD NOT SKED=

USA.gov is the U.S. government's official web portal to all federal, state and local government web resources and services.